Ana Sayfa
METAR-TAF:

METAR-TAF

Havaalanları :

Raleigh-Durham International Airport

Raleigh / Durham, Kuzey Carolina, Amerika Birleşik Devletleri

Enlem: 35-52-14N, Boylam: 078-47-11W, yükseklik: 133 m

Güncel hava durumu gözlemi

Rapor saat 03:51 UTC de 30 dakika önce yapıldı.
Sakin rüzgar
Sıcaklık 7°C
Nem 76%
Basınç 1022 hPa
Görüş mesafesi: 16.1 km
11000 ft yükseklikte az bulutlu

METAR: KRDU 160351Z 00000KT 10SM FEW110 07/03 A3017 RMK AO2 SLP216 T00720033

Saat: 23:21 (04:21 UTC)

Tahmin

Rapor saat 23:37 UTC de 4 saat ve 44 dakika önce yapıldı.
Ayın 16'si saat 00 UTC'den ayın 16'si saat 24 UTC'ye kadar geçerli Tahmin
Rüzgar güneydan 3 kt
Görüş mesafesi: 10 km
Açık gökyüzü
Ayın 16'si saat 1500 UTC'den
Rüzgar güney/güneybatıdan 7 kt ve 16 kt'a kadar ani rüzgarlar
Görüş mesafesi: 10 km
25000 ft yükseklikte parçalı çok bulutlu

TAF: KRDU 152337Z 1600/1624 19003KT P6SM SKC FM161500 20007G16KT P6SM BKN250

4.000'den fazla havaalanı için hava durumu gözlemleri ve tahminleri (METAR ve TAF raporları).

Kullanılabilir istasyonlar harita üzerinde sarı ve kırmızı noktalarla gösterilir.

İstasyonun adını görmek için fareyi noktanın üzerinde gezdirin.

Sonrasında hava gözlem ve tahminlerini görmek için tıklayın.

Haritayı değiştirmek için: yaklaştırmak için siyah artı işaretli yeşil düğmeye ve uzaklaştırmak için de eksi işaretli düğmeye hızla tıklayın; bitişik haritalar için yeşil okları kullanın.


METAR-TAF: